sensor_id;sensor_type;location;lat;lon;timestamp;temperature;humidity
1083;DHT22;530;51.448;7.238;2022-07-23T00:00:15;17.40;99.90
1083;DHT22;530;51.448;7.238;2022-07-23T00:02:41;17.50;99.90
1083;DHT22;530;51.448;7.238;2022-07-23T00:05:07;17.40;99.90
1083;DHT22;530;51.448;7.238;2022-07-23T00:07:33;17.40;99.90
1083;DHT22;530;51.448;7.238;2022-07-23T00:09:58;17.40;99.90
1083;DHT22;530;51.448;7.238;2022-07-23T00:12:24;17.30;99.90
1083;DHT22;530;51.448;7.238;2022-07-23T00:14:50;17.30;99.90
1083;DHT22;530;51.448;7.238;2022-07-23T00:17:15;17.20;99.90
1083;DHT22;530;51.448;7.238;2022-07-23T00:19:41;17.20;99.90
1083;DHT22;530;51.448;7.238;2022-07-23T00:22:07;17.10;99.90
1083;DHT22;530;51.448;7.238;2022-07-23T00:24:33;17.10;99.90
1083;DHT22;530;51.448;7.238;2022-07-23T00:26:58;17.10;99.90
1083;DHT22;530;51.448;7.238;2022-07-23T00:29:24;17.10;99.90
1083;DHT22;530;51.448;7.238;2022-07-23T00:31:50;17.00;99.90
1083;DHT22;530;51.448;7.238;2022-07-23T00:34:15;17.00;99.90
1083;DHT22;530;51.448;7.238;2022-07-23T00:36:41;17.00;99.90
1083;DHT22;530;51.448;7.238;2022-07-23T00:39:07;17.00;99.90
1083;DHT22;530;51.448;7.238;2022-07-23T00:41:32;17.00;99.90
1083;DHT22;530;51.448;7.238;2022-07-23T00:44:17;17.00;99.90
1083;DHT22;530;51.448;7.238;2022-07-23T00:46:53;17.00;99.90
1083;DHT22;530;51.448;7.238;2022-07-23T00:49:29;16.90;99.90
1083;DHT22;530;51.448;7.238;2022-07-23T00:51:56;16.90;99.90
1083;DHT22;530;51.448;7.238;2022-07-23T00:54:24;16.90;99.90
1083;DHT22;530;51.448;7.238;2022-07-23T00:56:51;16.90;99.90
1083;DHT22;530;51.448;7.238;2022-07-23T00:59:16;16.90;99.90
1083;DHT22;530;51.448;7.238;2022-07-23T01:01:42;17.00;99.90
1083;DHT22;530;51.448;7.238;2022-07-23T01:04:09;17.00;99.90
1083;DHT22;530;51.448;7.238;2022-07-23T01:06:37;17.00;99.90
1083;DHT22;530;51.448;7.238;2022-07-23T01:09:04;17.00;99.90
1083;DHT22;530;51.448;7.238;2022-07-23T01:11:36;16.90;99.90
1083;DHT22;530;51.448;7.238;2022-07-23T01:14:15;16.80;99.90
1083;DHT22;530;51.448;7.238;2022-07-23T01:16:43;16.90;99.90
1083;DHT22;530;51.448;7.238;2022-07-23T01:19:09;16.90;99.90
1083;DHT22;530;51.448;7.238;2022-07-23T01:21:37;16.90;99.90
1083;DHT22;530;51.448;7.238;2022-07-23T01:24:03;16.90;99.90
1083;DHT22;530;51.448;7.238;2022-07-23T01:26:29;16.90;99.90
1083;DHT22;530;51.448;7.238;2022-07-23T01:28:55;17.00;99.90
1083;DHT22;530;51.448;7.238;2022-07-23T01:31:21;16.90;99.90
1083;DHT22;530;51.448;7.238;2022-07-23T01:33:47;16.90;99.90
1083;DHT22;530;51.448;7.238;2022-07-23T01:36:13;16.80;99.90
1083;DHT22;530;51.448;7.238;2022-07-23T01:38:39;16.80;99.90
1083;DHT22;530;51.448;7.238;2022-07-23T01:41:05;16.80;99.90
1083;DHT22;530;51.448;7.238;2022-07-23T01:43:30;16.80;99.90
1083;DHT22;530;51.448;7.238;2022-07-23T01:45:56;16.80;99.90
1083;DHT22;530;51.448;7.238;2022-07-23T01:48:22;16.90;99.90
1083;DHT22;530;51.448;7.238;2022-07-23T01:50:48;16.90;99.90
1083;DHT22;530;51.448;7.238;2022-07-23T01:53:14;16.90;99.90
1083;DHT22;530;51.448;7.238;2022-07-23T01:55:41;16.80;99.90
1083;DHT22;530;51.448;7.238;2022-07-23T01:58:07;16.80;99.90
1083;DHT22;530;51.448;7.238;2022-07-23T02:00:32;16.70;99.90
1083;DHT22;530;51.448;7.238;2022-07-23T02:02:59;16.70;99.90
1083;DHT22;530;51.448;7.238;2022-07-23T02:05:25;16.70;99.90
1083;DHT22;530;51.448;7.238;2022-07-23T02:07:51;16.70;99.90
1083;DHT22;530;51.448;7.238;2022-07-23T02:10:17;16.70;99.90
1083;DHT22;530;51.448;7.238;2022-07-23T02:12:43;16.70;99.90
1083;DHT22;530;51.448;7.238;2022-07-23T02:15:09;16.70;99.90
1083;DHT22;530;51.448;7.238;2022-07-23T02:17:34;16.70;99.90
1083;DHT22;530;51.448;7.238;2022-07-23T02:20:01;16.60;99.90
1083;DHT22;530;51.448;7.238;2022-07-23T02:22:26;16.60;99.90
1083;DHT22;530;51.448;7.238;2022-07-23T02:24:52;16.50;99.90
1083;DHT22;530;51.448;7.238;2022-07-23T02:27:18;16.50;99.90
1083;DHT22;530;51.448;7.238;2022-07-23T02:29:43;16.40;99.90
1083;DHT22;530;51.448;7.238;2022-07-23T02:32:09;16.40;99.90
1083;DHT22;530;51.448;7.238;2022-07-23T02:34:35;16.40;99.90
1083;DHT22;530;51.448;7.238;2022-07-23T02:37:00;16.40;99.90
1083;DHT22;530;51.448;7.238;2022-07-23T02:39:26;16.50;99.90
1083;DHT22;530;51.448;7.238;2022-07-23T02:41:52;16.50;99.90
1083;DHT22;530;51.448;7.238;2022-07-23T02:44:18;16.50;99.90
1083;DHT22;530;51.448;7.238;2022-07-23T02:46:43;16.50;99.90
1083;DHT22;530;51.448;7.238;2022-07-23T02:49:09;16.50;99.90
1083;DHT22;530;51.448;7.238;2022-07-23T02:51:35;16.50;99.90
1083;DHT22;530;51.448;7.238;2022-07-23T02:54:00;16.50;99.90
1083;DHT22;530;51.448;7.238;2022-07-23T02:56:26;16.50;99.90
1083;DHT22;530;51.448;7.238;2022-07-23T02:58:52;16.40;99.90
1083;DHT22;530;51.448;7.238;2022-07-23T03:01:18;16.40;99.90
1083;DHT22;530;51.448;7.238;2022-07-23T03:03:43;16.30;99.90
1083;DHT22;530;51.448;7.238;2022-07-23T03:06:09;16.30;99.90
1083;DHT22;530;51.448;7.238;2022-07-23T03:08:35;16.30;99.90
1083;DHT22;530;51.448;7.238;2022-07-23T03:11:00;16.20;99.90
1083;DHT22;530;51.448;7.238;2022-07-23T03:13:26;16.20;99.90
1083;DHT22;530;51.448;7.238;2022-07-23T03:15:52;16.20;99.90
1083;DHT22;530;51.448;7.238;2022-07-23T03:18:18;16.20;99.90
1083;DHT22;530;51.448;7.238;2022-07-23T03:20:44;16.20;99.90
1083;DHT22;530;51.448;7.238;2022-07-23T03:23:10;16.20;99.90
1083;DHT22;530;51.448;7.238;2022-07-23T03:25:36;16.20;99.90
1083;DHT22;530;51.448;7.238;2022-07-23T03:28:02;16.20;99.90
1083;DHT22;530;51.448;7.238;2022-07-23T03:30:27;16.20;99.90
1083;DHT22;530;51.448;7.238;2022-07-23T03:32:53;16.20;99.90
1083;DHT22;530;51.448;7.238;2022-07-23T03:35:19;16.10;99.90
1083;DHT22;530;51.448;7.238;2022-07-23T03:37:44;16.10;99.90
1083;DHT22;530;51.448;7.238;2022-07-23T03:40:10;16.10;99.90
1083;DHT22;530;51.448;7.238;2022-07-23T03:42:36;16.00;99.90
1083;DHT22;530;51.448;7.238;2022-07-23T03:45:04;15.90;99.90
1083;DHT22;530;51.448;7.238;2022-07-23T03:47:30;15.90;99.90
1083;DHT22;530;51.448;7.238;2022-07-23T03:49:55;15.90;99.90
1083;DHT22;530;51.448;7.238;2022-07-23T03:52:21;15.80;99.90
1083;DHT22;530;51.448;7.238;2022-07-23T03:54:47;15.80;99.90
1083;DHT22;530;51.448;7.238;2022-07-23T03:57:12;15.80;99.90
1083;DHT22;530;51.448;7.238;2022-07-23T03:59:38;15.70;99.90
1083;DHT22;530;51.448;7.238;2022-07-23T04:02:04;15.70;99.90
1083;DHT22;530;51.448;7.238;2022-07-23T04:04:29;15.70;99.90
1083;DHT22;530;51.448;7.238;2022-07-23T04:06:55;15.60;99.90
1083;DHT22;530;51.448;7.238;2022-07-23T04:09:21;15.70;99.90
1083;DHT22;530;51.448;7.238;2022-07-23T04:11:46;15.70;99.90
1083;DHT22;530;51.448;7.238;2022-07-23T04:14:12;15.80;99.90
1083;DHT22;530;51.448;7.238;2022-07-23T04:16:38;15.90;99.90
1083;DHT22;530;51.448;7.238;2022-07-23T04:19:03;16.00;99.90
1083;DHT22;530;51.448;7.238;2022-07-23T04:21:30;16.00;99.90
1083;DHT22;530;51.448;7.238;2022-07-23T04:23:56;16.10;99.90
1083;DHT22;530;51.448;7.238;2022-07-23T04:26:21;16.10;99.90
1083;DHT22;530;51.448;7.238;2022-07-23T04:28:47;16.10;99.90
1083;DHT22;530;51.448;7.238;2022-07-23T04:31:13;16.20;99.90
1083;DHT22;530;51.448;7.238;2022-07-23T04:33:38;16.30;99.90
1083;DHT22;530;51.448;7.238;2022-07-23T04:36:04;16.20;99.90
1083;DHT22;530;51.448;7.238;2022-07-23T04:38:30;16.30;99.90
1083;DHT22;530;51.448;7.238;2022-07-23T04:40:56;16.30;99.90
1083;DHT22;530;51.448;7.238;2022-07-23T04:43:21;16.20;99.90
1083;DHT22;530;51.448;7.238;2022-07-23T04:45:47;16.20;99.90
1083;DHT22;530;51.448;7.238;2022-07-23T04:48:13;16.20;99.90
1083;DHT22;530;51.448;7.238;2022-07-23T04:50:38;16.10;99.90
1083;DHT22;530;51.448;7.238;2022-07-23T04:53:04;16.10;99.90
1083;DHT22;530;51.448;7.238;2022-07-23T04:55:30;16.20;99.90
1083;DHT22;530;51.448;7.238;2022-07-23T04:57:56;16.20;99.90
1083;DHT22;530;51.448;7.238;2022-07-23T05:00:22;16.30;99.90
1083;DHT22;530;51.448;7.238;2022-07-23T05:02:47;16.30;99.90
1083;DHT22;530;51.448;7.238;2022-07-23T05:05:13;16.40;99.90
1083;DHT22;530;51.448;7.238;2022-07-23T05:07:39;16.40;99.90
1083;DHT22;530;51.448;7.238;2022-07-23T05:10:05;16.40;99.90
1083;DHT22;530;51.448;7.238;2022-07-23T05:12:30;16.40;99.90
1083;DHT22;530;51.448;7.238;2022-07-23T05:14:56;16.40;99.90
1083;DHT22;530;51.448;7.238;2022-07-23T05:17:22;16.40;99.90
1083;DHT22;530;51.448;7.238;2022-07-23T05:19:47;16.30;99.90
1083;DHT22;530;51.448;7.238;2022-07-23T05:22:13;16.30;99.90
1083;DHT22;530;51.448;7.238;2022-07-23T05:24:39;16.30;99.90
1083;DHT22;530;51.448;7.238;2022-07-23T05:27:04;16.40;99.90
1083;DHT22;530;51.448;7.238;2022-07-23T05:29:30;16.40;99.90
1083;DHT22;530;51.448;7.238;2022-07-23T05:31:56;16.40;99.90
1083;DHT22;530;51.448;7.238;2022-07-23T05:34:21;16.40;99.90
1083;DHT22;530;51.448;7.238;2022-07-23T05:36:47;16.40;99.90
1083;DHT22;530;51.448;7.238;2022-07-23T05:39:14;16.40;99.90
1083;DHT22;530;51.448;7.238;2022-07-23T05:41:40;16.30;99.90
1083;DHT22;530;51.448;7.238;2022-07-23T05:44:05;16.40;99.90
1083;DHT22;530;51.448;7.238;2022-07-23T05:46:31;16.40;99.90
1083;DHT22;530;51.448;7.238;2022-07-23T05:48:57;16.50;99.90
1083;DHT22;530;51.448;7.238;2022-07-23T05:51:23;16.50;99.90
1083;DHT22;530;51.448;7.238;2022-07-23T05:53:50;16.60;99.90
1083;DHT22;530;51.448;7.238;2022-07-23T05:56:17;16.70;99.90
1083;DHT22;530;51.448;7.238;2022-07-23T05:58:43;16.80;99.90
1083;DHT22;530;51.448;7.238;2022-07-23T06:01:09;16.80;99.90
1083;DHT22;530;51.448;7.238;2022-07-23T06:03:35;16.90;99.90
1083;DHT22;530;51.448;7.238;2022-07-23T06:06:00;16.90;99.90
1083;DHT22;530;51.448;7.238;2022-07-23T06:08:26;16.90;99.90
1083;DHT22;530;51.448;7.238;2022-07-23T06:10:52;16.90;99.90
1083;DHT22;530;51.448;7.238;2022-07-23T06:13:18;16.90;99.90
1083;DHT22;530;51.448;7.238;2022-07-23T06:15:43;16.90;99.90
1083;DHT22;530;51.448;7.238;2022-07-23T06:18:09;17.00;99.90
1083;DHT22;530;51.448;7.238;2022-07-23T06:20:35;17.00;99.90
1083;DHT22;530;51.448;7.238;2022-07-23T06:23:01;17.10;99.90
1083;DHT22;530;51.448;7.238;2022-07-23T06:25:26;17.20;99.90
1083;DHT22;530;51.448;7.238;2022-07-23T06:27:52;17.30;99.90
1083;DHT22;530;51.448;7.238;2022-07-23T06:30:18;17.50;99.90
1083;DHT22;530;51.448;7.238;2022-07-23T06:32:45;17.80;99.90
1083;DHT22;530;51.448;7.238;2022-07-23T06:35:10;18.00;99.90
1083;DHT22;530;51.448;7.238;2022-07-23T06:37:36;18.10;99.90
1083;DHT22;530;51.448;7.238;2022-07-23T06:40:03;18.10;99.90
1083;DHT22;530;51.448;7.238;2022-07-23T06:42:28;18.00;99.90
1083;DHT22;530;51.448;7.238;2022-07-23T06:44:54;17.90;99.90
1083;DHT22;530;51.448;7.238;2022-07-23T06:47:20;17.90;99.90
1083;DHT22;530;51.448;7.238;2022-07-23T06:49:45;17.80;99.90
1083;DHT22;530;51.448;7.238;2022-07-23T06:52:11;17.80;99.90
1083;DHT22;530;51.448;7.238;2022-07-23T06:54:37;17.60;99.90
1083;DHT22;530;51.448;7.238;2022-07-23T06:57:02;17.50;99.90
1083;DHT22;530;51.448;7.238;2022-07-23T06:59:28;17.40;99.90
1083;DHT22;530;51.448;7.238;2022-07-23T07:01:54;17.50;99.90
1083;DHT22;530;51.448;7.238;2022-07-23T07:04:20;17.60;99.90
1083;DHT22;530;51.448;7.238;2022-07-23T07:06:45;17.80;99.90
1083;DHT22;530;51.448;7.238;2022-07-23T07:09:11;17.90;99.90
1083;DHT22;530;51.448;7.238;2022-07-23T07:11:37;18.00;99.90
1083;DHT22;530;51.448;7.238;2022-07-23T07:14:03;18.10;99.90
1083;DHT22;530;51.448;7.238;2022-07-23T07:16:29;18.10;99.90
1083;DHT22;530;51.448;7.238;2022-07-23T07:18:55;18.20;99.90
1083;DHT22;530;51.448;7.238;2022-07-23T07:21:21;18.20;99.90
1083;DHT22;530;51.448;7.238;2022-07-23T07:23:47;18.20;99.90
1083;DHT22;530;51.448;7.238;2022-07-23T07:26:12;18.30;99.90
1083;DHT22;530;51.448;7.238;2022-07-23T07:28:38;18.40;99.90
1083;DHT22;530;51.448;7.238;2022-07-23T07:31:04;18.60;99.90
1083;DHT22;530;51.448;7.238;2022-07-23T07:33:29;19.00;99.90
1083;DHT22;530;51.448;7.238;2022-07-23T07:35:55;19.20;99.90
1083;DHT22;530;51.448;7.238;2022-07-23T07:38:21;19.30;99.90
1083;DHT22;530;51.448;7.238;2022-07-23T07:40:47;19.30;99.90
1083;DHT22;530;51.448;7.238;2022-07-23T07:43:12;19.10;99.90
1083;DHT22;530;51.448;7.238;2022-07-23T07:45:38;19.10;99.90
1083;DHT22;530;51.448;7.238;2022-07-23T07:48:04;19.00;99.90
1083;DHT22;530;51.448;7.238;2022-07-23T07:50:30;18.80;99.90
1083;DHT22;530;51.448;7.238;2022-07-23T07:52:56;18.80;99.90
1083;DHT22;530;51.448;7.238;2022-07-23T07:55:22;18.80;99.90
1083;DHT22;530;51.448;7.238;2022-07-23T07:57:47;18.90;99.90
1083;DHT22;530;51.448;7.238;2022-07-23T08:00:13;19.10;99.90
1083;DHT22;530;51.448;7.238;2022-07-23T08:02:50;19.40;99.90
1083;DHT22;530;51.448;7.238;2022-07-23T08:05:25;19.50;99.90
1083;DHT22;530;51.448;7.238;2022-07-23T08:07:51;19.50;99.90
1083;DHT22;530;51.448;7.238;2022-07-23T08:10:18;19.50;99.90
1083;DHT22;530;51.448;7.238;2022-07-23T08:12:55;19.50;99.90
1083;DHT22;530;51.448;7.238;2022-07-23T08:15:23;19.40;99.90
1083;DHT22;530;51.448;7.238;2022-07-23T08:17:49;19.50;99.90
1083;DHT22;530;51.448;7.238;2022-07-23T08:20:18;19.50;99.90
1083;DHT22;530;51.448;7.238;2022-07-23T08:23:05;19.50;99.90
1083;DHT22;530;51.448;7.238;2022-07-23T08:25:31;19.70;99.90
1083;DHT22;530;51.448;7.238;2022-07-23T08:27:59;19.60;99.90
1083;DHT22;530;51.448;7.238;2022-07-23T08:30:26;19.70;99.90
1083;DHT22;530;51.448;7.238;2022-07-23T08:35:35;19.70;99.90
1083;DHT22;530;51.448;7.238;2022-07-23T08:38:03;19.60;99.90
1083;DHT22;530;51.448;7.238;2022-07-23T08:40:33;19.60;99.90
1083;DHT22;530;51.448;7.238;2022-07-23T08:42:59;19.70;99.90
1083;DHT22;530;51.448;7.238;2022-07-23T08:45:26;19.80;99.90
1083;DHT22;530;51.448;7.238;2022-07-23T08:47:54;19.90;99.90
1083;DHT22;530;51.448;7.238;2022-07-23T08:50:22;19.90;99.90
1083;DHT22;530;51.448;7.238;2022-07-23T08:52:52;20.00;99.90
1083;DHT22;530;51.448;7.238;2022-07-23T08:55:21;20.00;99.90
1083;DHT22;530;51.448;7.238;2022-07-23T08:57:52;20.10;99.90
1083;DHT22;530;51.448;7.238;2022-07-23T09:00:19;20.30;99.90
1083;DHT22;530;51.448;7.238;2022-07-23T09:02:47;20.40;99.90
1083;DHT22;530;51.448;7.238;2022-07-23T09:05:14;20.40;99.90
1083;DHT22;530;51.448;7.238;2022-07-23T09:13:35;20.40;99.90
1083;DHT22;530;51.448;7.238;2022-07-23T09:16:07;20.40;99.90
1083;DHT22;530;51.448;7.238;2022-07-23T09:18:53;20.50;99.90
1083;DHT22;530;51.448;7.238;2022-07-23T09:21:26;20.60;99.90
1083;DHT22;530;51.448;7.238;2022-07-23T09:31:27;21.10;99.90
1083;DHT22;530;51.448;7.238;2022-07-23T09:34:07;21.30;99.90
1083;DHT22;530;51.448;7.238;2022-07-23T09:36:33;21.50;99.90
1083;DHT22;530;51.448;7.238;2022-07-23T09:38:59;21.70;99.90
1083;DHT22;530;51.448;7.238;2022-07-23T09:41:38;22.00;99.90
1083;DHT22;530;51.448;7.238;2022-07-23T09:44:08;22.20;99.90
1083;DHT22;530;51.448;7.238;2022-07-23T09:46:35;22.30;99.90
1083;DHT22;530;51.448;7.238;2022-07-23T09:51:49;22.10;99.90
1083;DHT22;530;51.448;7.238;2022-07-23T09:54:41;21.80;99.90
1083;DHT22;530;51.448;7.238;2022-07-23T09:57:11;21.60;99.90
1083;DHT22;530;51.448;7.238;2022-07-23T09:59:42;21.70;99.90
1083;DHT22;530;51.448;7.238;2022-07-23T10:02:10;21.90;99.90
1083;DHT22;530;51.448;7.238;2022-07-23T10:04:38;22.10;99.90
1083;DHT22;530;51.448;7.238;2022-07-23T10:07:05;22.30;99.90
1083;DHT22;530;51.448;7.238;2022-07-23T10:09:34;22.20;99.90
1083;DHT22;530;51.448;7.238;2022-07-23T10:12:03;22.30;99.90
1083;DHT22;530;51.448;7.238;2022-07-23T10:14:34;22.30;99.90
1083;DHT22;530;51.448;7.238;2022-07-23T10:17:02;22.30;99.90
1083;DHT22;530;51.448;7.238;2022-07-23T10:19:30;22.40;99.90
1083;DHT22;530;51.448;7.238;2022-07-23T10:22:10;22.50;99.90
1083;DHT22;530;51.448;7.238;2022-07-23T10:43:21;22.90;99.90
1083;DHT22;530;51.448;7.238;2022-07-23T10:45:47;23.10;99.90
1083;DHT22;530;51.448;7.238;2022-07-23T10:50:43;23.20;99.90
1083;DHT22;530;51.448;7.238;2022-07-23T10:53:14;23.30;99.90
1083;DHT22;530;51.448;7.238;2022-07-23T10:55:42;23.40;99.90
1083;DHT22;530;51.448;7.238;2022-07-23T10:58:08;23.50;99.90
1083;DHT22;530;51.448;7.238;2022-07-23T11:00:35;23.60;99.90
1083;DHT22;530;51.448;7.238;2022-07-23T11:03:06;23.70;99.90
1083;DHT22;530;51.448;7.238;2022-07-23T11:05:51;23.70;99.90
1083;DHT22;530;51.448;7.238;2022-07-23T11:08:19;23.80;99.90
1083;DHT22;530;51.448;7.238;2022-07-23T11:10:52;23.80;99.90
1083;DHT22;530;51.448;7.238;2022-07-23T11:13:27;23.80;99.90
1083;DHT22;530;51.448;7.238;2022-07-23T11:18:58;23.90;99.90
1083;DHT22;530;51.448;7.238;2022-07-23T11:31:59;24.30;99.90
1083;DHT22;530;51.448;7.238;2022-07-23T11:34:42;24.40;99.90
1083;DHT22;530;51.448;7.238;2022-07-23T11:37:09;24.40;99.90
1083;DHT22;530;51.448;7.238;2022-07-23T11:39:36;24.40;99.70
1083;DHT22;530;51.448;7.238;2022-07-23T11:42:03;24.30;99.90
1083;DHT22;530;51.448;7.238;2022-07-23T11:44:34;24.40;99.90
1083;DHT22;530;51.448;7.238;2022-07-23T11:49:28;24.40;99.70
1083;DHT22;530;51.448;7.238;2022-07-23T11:54:32;24.50;99.90
1083;DHT22;530;51.448;7.238;2022-07-23T11:56:59;24.60;99.90
1083;DHT22;530;51.448;7.238;2022-07-23T11:59:27;24.70;99.90
1083;DHT22;530;51.448;7.238;2022-07-23T12:04:33;25.00;99.90
1083;DHT22;530;51.448;7.238;2022-07-23T12:07:02;25.10;99.90
1083;DHT22;530;51.448;7.238;2022-07-23T12:09:27;25.20;99.90
1083;DHT22;530;51.448;7.238;2022-07-23T12:12:00;25.20;99.80
1083;DHT22;530;51.448;7.238;2022-07-23T12:14:26;25.20;97.80
1083;DHT22;530;51.448;7.238;2022-07-23T12:17:10;25.20;97.40
1083;DHT22;530;51.448;7.238;2022-07-23T12:19:36;25.20;98.30
1083;DHT22;530;51.448;7.238;2022-07-23T12:22:02;25.20;99.30
1083;DHT22;530;51.448;7.238;2022-07-23T12:24:28;25.20;97.20
1083;DHT22;530;51.448;7.238;2022-07-23T12:27:12;25.00;98.10
1083;DHT22;530;51.448;7.238;2022-07-23T12:29:39;24.90;98.70
1083;DHT22;530;51.448;7.238;2022-07-23T12:32:22;24.90;99.50
1083;DHT22;530;51.448;7.238;2022-07-23T12:34:50;24.90;97.40
1083;DHT22;530;51.448;7.238;2022-07-23T12:37:33;25.00;99.10
1083;DHT22;530;51.448;7.238;2022-07-23T12:40:17;25.10;98.30
1083;DHT22;530;51.448;7.238;2022-07-23T12:42:43;24.90;98.30
1083;DHT22;530;51.448;7.238;2022-07-23T12:45:10;24.90;98.90
1083;DHT22;530;51.448;7.238;2022-07-23T12:48:03;25.00;98.60
1083;DHT22;530;51.448;7.238;2022-07-23T12:53:09;25.10;99.00
1083;DHT22;530;51.448;7.238;2022-07-23T12:55:36;25.10;99.20
1083;DHT22;530;51.448;7.238;2022-07-23T12:58:04;25.10;98.90
1083;DHT22;530;51.448;7.238;2022-07-23T13:00:32;25.20;98.80
1083;DHT22;530;51.448;7.238;2022-07-23T13:02:57;25.30;98.50
1083;DHT22;530;51.448;7.238;2022-07-23T13:05:23;25.40;97.40
1083;DHT22;530;51.448;7.238;2022-07-23T13:07:49;25.40;97.60
1083;DHT22;530;51.448;7.238;2022-07-23T13:10:15;25.30;96.70
1083;DHT22;530;51.448;7.238;2022-07-23T13:12:40;25.10;95.80
1083;DHT22;530;51.448;7.238;2022-07-23T13:15:06;25.10;98.00
1083;DHT22;530;51.448;7.238;2022-07-23T13:17:32;25.10;97.90
1083;DHT22;530;51.448;7.238;2022-07-23T13:19:58;25.10;97.40
1083;DHT22;530;51.448;7.238;2022-07-23T13:22:24;25.00;97.50
1083;DHT22;530;51.448;7.238;2022-07-23T13:24:49;24.80;97.10
1083;DHT22;530;51.448;7.238;2022-07-23T13:27:15;24.60;97.10
1083;DHT22;530;51.448;7.238;2022-07-23T13:29:41;24.50;97.50
1083;DHT22;530;51.448;7.238;2022-07-23T13:32:07;24.50;98.50
1083;DHT22;530;51.448;7.238;2022-07-23T13:34:32;24.60;99.00
1083;DHT22;530;51.448;7.238;2022-07-23T13:36:58;24.80;99.80
1083;DHT22;530;51.448;7.238;2022-07-23T13:39:24;25.00;97.10
1083;DHT22;530;51.448;7.238;2022-07-23T13:41:49;25.10;98.60
1083;DHT22;530;51.448;7.238;2022-07-23T13:44:15;25.10;96.20
1083;DHT22;530;51.448;7.238;2022-07-23T13:46:41;25.20;97.70
1083;DHT22;530;51.448;7.238;2022-07-23T13:49:06;25.30;97.20
1083;DHT22;530;51.448;7.238;2022-07-23T13:51:32;25.30;96.40
1083;DHT22;530;51.448;7.238;2022-07-23T13:53:58;25.20;95.80
1083;DHT22;530;51.448;7.238;2022-07-23T13:56:24;25.10;96.60
1083;DHT22;530;51.448;7.238;2022-07-23T13:58:50;25.10;97.40
1083;DHT22;530;51.448;7.238;2022-07-23T14:01:16;25.20;98.60
1083;DHT22;530;51.448;7.238;2022-07-23T14:03:41;25.30;98.00
1083;DHT22;530;51.448;7.238;2022-07-23T14:06:07;25.40;97.80
1083;DHT22;530;51.448;7.238;2022-07-23T14:08:33;25.40;97.20
1083;DHT22;530;51.448;7.238;2022-07-23T14:10:58;25.40;97.30
1083;DHT22;530;51.448;7.238;2022-07-23T14:13:24;25.40;97.20
1083;DHT22;530;51.448;7.238;2022-07-23T14:15:50;25.50;96.90
1083;DHT22;530;51.448;7.238;2022-07-23T14:18:16;25.60;96.10
1083;DHT22;530;51.448;7.238;2022-07-23T14:20:42;25.70;95.10
1083;DHT22;530;51.448;7.238;2022-07-23T14:23:07;25.70;94.80
1083;DHT22;530;51.448;7.238;2022-07-23T14:25:33;25.70;95.70
1083;DHT22;530;51.448;7.238;2022-07-23T14:27:59;25.80;97.00
1083;DHT22;530;51.448;7.238;2022-07-23T14:30:25;25.90;95.70
1083;DHT22;530;51.448;7.238;2022-07-23T14:32:51;25.90;94.70
1083;DHT22;530;51.448;7.238;2022-07-23T14:35:16;25.90;95.40
1083;DHT22;530;51.448;7.238;2022-07-23T14:37:44;25.80;95.40
1083;DHT22;530;51.448;7.238;2022-07-23T14:40:09;25.70;95.80
1083;DHT22;530;51.448;7.238;2022-07-23T14:42:35;25.70;96.10
1083;DHT22;530;51.448;7.238;2022-07-23T14:45:01;25.70;95.20
1083;DHT22;530;51.448;7.238;2022-07-23T14:47:27;25.60;95.10
1083;DHT22;530;51.448;7.238;2022-07-23T14:49:52;25.60;95.60
1083;DHT22;530;51.448;7.238;2022-07-23T14:52:18;25.50;94.70
1083;DHT22;530;51.448;7.238;2022-07-23T14:54:44;25.30;94.50
1083;DHT22;530;51.448;7.238;2022-07-23T14:57:09;25.20;95.40
1083;DHT22;530;51.448;7.238;2022-07-23T14:59:35;25.00;94.60
1083;DHT22;530;51.448;7.238;2022-07-23T15:02:01;25.00;95.20
1083;DHT22;530;51.448;7.238;2022-07-23T15:04:27;25.00;94.20
1083;DHT22;530;51.448;7.238;2022-07-23T15:06:53;25.10;94.50
1083;DHT22;530;51.448;7.238;2022-07-23T15:09:18;25.10;94.10
1083;DHT22;530;51.448;7.238;2022-07-23T15:11:44;25.10;94.60
1083;DHT22;530;51.448;7.238;2022-07-23T15:14:10;25.20;95.80
1083;DHT22;530;51.448;7.238;2022-07-23T15:16:36;25.20;94.80
1083;DHT22;530;51.448;7.238;2022-07-23T15:19:02;25.10;93.90
1083;DHT22;530;51.448;7.238;2022-07-23T15:21:28;25.00;94.40
1083;DHT22;530;51.448;7.238;2022-07-23T15:23:57;25.10;95.80
1083;DHT22;530;51.448;7.238;2022-07-23T15:26:28;25.20;96.20
1083;DHT22;530;51.448;7.238;2022-07-23T15:28:54;25.20;95.90
1083;DHT22;530;51.448;7.238;2022-07-23T15:31:21;25.20;96.00
1083;DHT22;530;51.448;7.238;2022-07-23T15:33:46;25.20;96.40
1083;DHT22;530;51.448;7.238;2022-07-23T15:36:12;25.30;96.20
1083;DHT22;530;51.448;7.238;2022-07-23T15:38:38;25.20;95.60
1083;DHT22;530;51.448;7.238;2022-07-23T15:41:04;25.20;96.10
1083;DHT22;530;51.448;7.238;2022-07-23T15:43:30;25.00;95.90
1083;DHT22;530;51.448;7.238;2022-07-23T15:45:56;24.80;95.20
1083;DHT22;530;51.448;7.238;2022-07-23T15:48:22;24.70;95.20
1083;DHT22;530;51.448;7.238;2022-07-23T15:50:48;24.80;95.70
1083;DHT22;530;51.448;7.238;2022-07-23T15:53:14;24.80;94.50
1083;DHT22;530;51.448;7.238;2022-07-23T15:55:41;24.80;93.70
1083;DHT22;530;51.448;7.238;2022-07-23T15:58:10;24.90;96.10
1083;DHT22;530;51.448;7.238;2022-07-23T16:00:35;25.00;96.40
1083;DHT22;530;51.448;7.238;2022-07-23T16:03:01;25.10;96.90
1083;DHT22;530;51.448;7.238;2022-07-23T16:05:27;25.20;95.50
1083;DHT22;530;51.448;7.238;2022-07-23T16:07:53;25.30;95.80
1083;DHT22;530;51.448;7.238;2022-07-23T16:10:19;25.20;93.10
1083;DHT22;530;51.448;7.238;2022-07-23T16:12:46;25.10;93.60
1083;DHT22;530;51.448;7.238;2022-07-23T16:15:12;25.20;93.90
1083;DHT22;530;51.448;7.238;2022-07-23T16:17:38;25.20;94.10
1083;DHT22;530;51.448;7.238;2022-07-23T16:20:04;25.10;95.10
1083;DHT22;530;51.448;7.238;2022-07-23T16:22:32;25.10;95.60
1083;DHT22;530;51.448;7.238;2022-07-23T16:24:58;25.00;95.60
1083;DHT22;530;51.448;7.238;2022-07-23T16:27:24;25.00;95.60
1083;DHT22;530;51.448;7.238;2022-07-23T16:29:50;24.90;96.00
1083;DHT22;530;51.448;7.238;2022-07-23T16:32:16;24.90;95.80
1083;DHT22;530;51.448;7.238;2022-07-23T16:34:42;24.90;95.50
1083;DHT22;530;51.448;7.238;2022-07-23T16:37:10;24.90;95.70
1083;DHT22;530;51.448;7.238;2022-07-23T16:39:36;24.80;94.90
1083;DHT22;530;51.448;7.238;2022-07-23T16:42:02;24.70;95.30
1083;DHT22;530;51.448;7.238;2022-07-23T16:44:28;24.60;96.70
1083;DHT22;530;51.448;7.238;2022-07-23T16:46:54;24.60;96.50
1083;DHT22;530;51.448;7.238;2022-07-23T16:49:20;24.50;95.90
1083;DHT22;530;51.448;7.238;2022-07-23T16:51:46;24.40;95.90
1083;DHT22;530;51.448;7.238;2022-07-23T16:54:11;24.30;96.80
1083;DHT22;530;51.448;7.238;2022-07-23T16:56:37;24.30;97.10
1083;DHT22;530;51.448;7.238;2022-07-23T16:59:03;24.20;96.90
1083;DHT22;530;51.448;7.238;2022-07-23T17:01:29;24.20;96.80
1083;DHT22;530;51.448;7.238;2022-07-23T17:03:55;24.30;96.90
1083;DHT22;530;51.448;7.238;2022-07-23T17:06:20;24.30;96.80
1083;DHT22;530;51.448;7.238;2022-07-23T17:08:46;24.40;96.90
1083;DHT22;530;51.448;7.238;2022-07-23T17:11:12;24.40;96.70
1083;DHT22;530;51.448;7.238;2022-07-23T17:13:38;24.40;95.90
1083;DHT22;530;51.448;7.238;2022-07-23T17:16:04;24.30;96.10
1083;DHT22;530;51.448;7.238;2022-07-23T17:18:29;24.20;96.70